createdAt,value
2019-03-30T00:00:10.141Z,6.51
2019-03-30T00:02:37.911Z,6.57
2019-03-30T00:05:06.949Z,6.58
2019-03-30T00:07:35.466Z,6.62
2019-03-30T00:10:05.690Z,6.54
2019-03-30T00:12:34.284Z,6.49
2019-03-30T00:15:03.054Z,5.98
2019-03-30T00:17:31.562Z,6.09
2019-03-30T00:20:00.052Z,6.15
2019-03-30T00:22:28.568Z,6.37
2019-03-30T00:24:57.059Z,6.30
2019-03-30T00:27:25.778Z,6.32
2019-03-30T00:29:54.259Z,6.35
2019-03-30T00:32:22.746Z,6.34
2019-03-30T00:34:51.268Z,6.32
2019-03-30T00:37:19.766Z,6.42
2019-03-30T00:39:48.279Z,6.32
2019-03-30T00:42:16.818Z,6.14
2019-03-30T00:44:45.395Z,6.06
2019-03-30T00:47:13.900Z,6.07
2019-03-30T00:49:48.832Z,6.12
2019-03-30T00:52:12.643Z,6.18
2019-03-30T00:54:41.158Z,6.19
2019-03-30T00:57:09.672Z,6.18
2019-03-30T00:59:38.173Z,6.18
2019-03-30T01:02:06.742Z,6.14
2019-03-30T01:04:35.227Z,6.12
2019-03-30T01:07:03.794Z,6.04
2019-03-30T01:09:32.314Z,5.98
2019-03-30T01:12:00.811Z,5.97
2019-03-30T01:14:29.322Z,5.95
2019-03-30T01:16:57.828Z,5.87
2019-03-30T01:19:26.356Z,5.92
2019-03-30T01:21:56.334Z,5.71
2019-03-30T01:24:25.025Z,5.74
2019-03-30T01:26:53.511Z,5.77
2019-03-30T01:29:22.035Z,5.79
2019-03-30T01:31:50.524Z,5.77
2019-03-30T01:34:19.119Z,5.77
2019-03-30T01:36:47.664Z,5.74
2019-03-30T01:39:16.154Z,5.53
2019-03-30T01:41:44.642Z,5.63
2019-03-30T01:44:13.166Z,5.71
2019-03-30T01:46:41.658Z,5.72
2019-03-30T01:49:10.172Z,5.74
2019-03-30T01:51:38.666Z,5.72
2019-03-30T01:54:07.158Z,5.74
2019-03-30T01:56:35.660Z,5.75
2019-03-30T01:59:04.303Z,5.69
2019-03-30T02:01:32.902Z,5.60
2019-03-30T02:04:01.591Z,5.60
2019-03-30T02:06:30.083Z,5.59
2019-03-30T02:08:58.645Z,5.63
2019-03-30T02:11:27.166Z,5.59
2019-03-30T02:13:55.663Z,5.56
2019-03-30T02:16:24.231Z,5.56
2019-03-30T02:18:52.755Z,5.56
2019-03-30T02:21:21.246Z,5.56
2019-03-30T02:23:49.748Z,5.50
2019-03-30T02:26:18.272Z,5.40
2019-03-30T02:28:46.758Z,5.15
2019-03-30T02:31:15.348Z,4.99
2019-03-30T02:33:43.836Z,5.20
2019-03-30T02:36:12.373Z,5.28
2019-03-30T02:38:40.838Z,5.34
2019-03-30T02:41:09.363Z,5.19
2019-03-30T02:43:37.879Z,5.29
2019-03-30T02:46:06.364Z,5.36
2019-03-30T02:48:34.884Z,5.38
2019-03-30T02:51:03.429Z,5.31
2019-03-30T02:53:31.976Z,5.26
2019-03-30T02:56:00.555Z,5.20
2019-03-30T02:58:29.072Z,5.17
2019-03-30T03:00:57.550Z,5.23
2019-03-30T03:03:26.048Z,5.20
2019-03-30T03:05:54.540Z,5.23
2019-03-30T03:08:23.226Z,5.20
2019-03-30T03:10:51.737Z,5.25
2019-03-30T03:13:20.426Z,5.17
2019-03-30T03:15:48.948Z,5.10
2019-03-30T03:18:17.447Z,5.18
2019-03-30T03:20:46.029Z,5.19
2019-03-30T03:23:14.513Z,5.18
2019-03-30T03:25:43.050Z,5.03
2019-03-30T03:28:11.549Z,4.59
2019-03-30T03:30:40.070Z,4.74
2019-03-30T03:33:08.710Z,4.83
2019-03-30T03:35:37.280Z,4.34
2019-03-30T03:38:05.821Z,4.32
2019-03-30T03:40:34.298Z,4.70
2019-03-30T03:43:02.820Z,4.89
2019-03-30T03:45:31.332Z,4.91
2019-03-30T03:47:59.902Z,4.86
2019-03-30T03:50:37.051Z,4.88
2019-03-30T03:53:05.795Z,4.85
2019-03-30T03:55:35.355Z,4.82
2019-03-30T03:58:05.277Z,5.06
2019-03-30T04:00:35.532Z,5.08
2019-03-30T04:03:05.850Z,5.17
2019-03-30T04:05:36.914Z,5.15
2019-03-30T04:08:08.717Z,5.13
2019-03-30T04:10:38.703Z,5.05
2019-03-30T04:13:08.921Z,5.06
2019-03-30T04:15:37.517Z,5.09
2019-03-30T04:18:06.009Z,5.06
2019-03-30T04:20:34.502Z,5.08
2019-03-30T04:23:03.014Z,5.11
2019-03-30T04:25:31.525Z,4.99
2019-03-30T04:28:00.086Z,5.05
2019-03-30T04:30:28.658Z,5.05
2019-03-30T04:32:57.129Z,5.07
2019-03-30T04:35:25.622Z,5.12
2019-03-30T04:37:54.139Z,5.14
2019-03-30T04:40:22.638Z,4.96
2019-03-30T04:42:51.164Z,4.91
2019-03-30T04:45:19.655Z,4.94
2019-03-30T04:47:48.176Z,5.01
2019-03-30T04:50:16.671Z,5.15
2019-03-30T04:52:45.162Z,5.27
2019-03-30T04:55:13.673Z,5.34
2019-03-30T04:57:42.161Z,5.24
2019-03-30T05:00:10.912Z,5.25
2019-03-30T05:02:39.420Z,5.15
2019-03-30T05:05:08.764Z,5.06
2019-03-30T05:07:37.263Z,4.83
2019-03-30T05:10:09.009Z,4.51
2019-03-30T05:12:36.755Z,4.71
2019-03-30T05:15:06.456Z,4.86
2019-03-30T05:17:46.971Z,4.52
2019-03-30T05:20:06.887Z,4.11
2019-03-30T05:22:35.378Z,4.10
2019-03-30T05:25:04.733Z,4.21
2019-03-30T05:27:33.222Z,4.05
2019-03-30T05:30:01.751Z,4.34
2019-03-30T05:32:30.241Z,4.51
2019-03-30T05:34:58.758Z,5.13
2019-03-30T05:37:27.304Z,5.56
2019-03-30T05:39:55.792Z,5.40
2019-03-30T05:42:24.310Z,5.32
2019-03-30T05:44:52.799Z,5.44
2019-03-30T05:47:21.464Z,5.43
2019-03-30T05:49:49.951Z,5.84
2019-03-30T05:52:26.500Z,6.37
2019-03-30T05:54:48.663Z,6.61
2019-03-30T05:57:17.151Z,6.63
2019-03-30T05:59:45.655Z,6.66
2019-03-30T06:02:14.141Z,6.90
2019-03-30T06:04:42.710Z,6.91
2019-03-30T06:07:11.240Z,7.17
2019-03-30T06:09:39.716Z,7.17
2019-03-30T06:12:08.276Z,7.20
2019-03-30T06:14:36.845Z,7.53
2019-03-30T06:17:05.334Z,7.92
2019-03-30T06:19:33.831Z,8.03
2019-03-30T06:22:03.346Z,7.98
2019-03-30T06:24:31.804Z,7.81
2019-03-30T06:27:00.387Z,8.00
2019-03-30T06:29:28.880Z,8.10
2019-03-30T06:31:57.400Z,8.41
2019-03-30T06:34:25.913Z,8.66
2019-03-30T06:36:54.464Z,8.75
2019-03-30T06:39:22.982Z,8.67
2019-03-30T06:41:51.477Z,8.72
2019-03-30T06:44:19.974Z,8.90
2019-03-30T06:46:48.505Z,9.06
2019-03-30T06:49:16.998Z,9.14
2019-03-30T06:51:45.476Z,8.79
2019-03-30T06:54:14.928Z,9.18
2019-03-30T06:56:45.097Z,9.23
2019-03-30T06:59:13.588Z,9.23
2019-03-30T07:01:42.267Z,9.31
2019-03-30T07:04:11.330Z,9.48
2019-03-30T07:06:40.378Z,9.78
2019-03-30T07:09:08.872Z,9.57
2019-03-30T07:11:40.405Z,9.52
2019-03-30T07:14:09.090Z,9.86
2019-03-30T07:16:39.753Z,10.11
2019-03-30T07:19:08.271Z,10.14
2019-03-30T07:21:36.792Z,10.27
2019-03-30T07:24:05.282Z,10.45
2019-03-30T07:26:33.800Z,10.66
2019-03-30T07:29:02.615Z,10.75
2019-03-30T07:31:31.127Z,10.19
2019-03-30T07:33:59.647Z,9.70
2019-03-30T07:36:28.131Z,9.66
2019-03-30T07:38:56.629Z,9.40
2019-03-30T07:41:25.186Z,9.73
2019-03-30T07:43:55.233Z,10.31
2019-03-30T07:46:23.730Z,10.38
2019-03-30T07:48:52.242Z,11.18
2019-03-30T07:51:20.748Z,11.43
2019-03-30T07:53:49.301Z,11.69
2019-03-30T07:56:17.786Z,11.05
2019-03-30T07:58:46.312Z,11.31
2019-03-30T08:01:14.846Z,11.94
2019-03-30T08:03:43.352Z,11.93
2019-03-30T08:06:11.867Z,12.36
2019-03-30T08:08:40.355Z,12.49
2019-03-30T08:11:09.028Z,12.81
2019-03-30T08:13:37.548Z,13.20
2019-03-30T08:16:06.049Z,13.41
2019-03-30T08:18:34.541Z,13.12
2019-03-30T08:21:03.061Z,12.19
2019-03-30T08:23:40.301Z,13.11
2019-03-30T08:26:01.780Z,13.79
2019-03-30T08:28:30.266Z,13.72
2019-03-30T08:30:58.781Z,12.73
2019-03-30T08:33:27.273Z,12.31
2019-03-30T08:35:55.793Z,12.39
2019-03-30T08:38:24.288Z,12.84
2019-03-30T08:40:52.845Z,14.20
2019-03-30T08:43:21.341Z,15.00
2019-03-30T08:45:49.814Z,15.19
2019-03-30T08:48:18.322Z,15.36
2019-03-30T08:50:46.816Z,15.80
2019-03-30T08:53:15.306Z,16.43
2019-03-30T08:55:43.794Z,16.47
2019-03-30T08:58:12.309Z,16.36
2019-03-30T09:00:44.173Z,16.93
2019-03-30T09:03:12.744Z,17.28
2019-03-30T09:05:41.231Z,17.00
2019-03-30T09:08:09.794Z,16.15
2019-03-30T09:10:38.447Z,15.50
2019-03-30T09:13:06.966Z,13.88
2019-03-30T09:15:35.515Z,13.03
2019-03-30T09:18:04.257Z,14.17
2019-03-30T09:20:32.748Z,16.14
2019-03-30T09:23:01.303Z,16.78
2019-03-30T09:25:29.802Z,17.36
2019-03-30T09:27:58.282Z,17.77
2019-03-30T09:30:26.848Z,18.41
2019-03-30T09:32:55.437Z,17.80
2019-03-30T09:35:23.923Z,17.40
2019-03-30T09:37:52.449Z,18.20
2019-03-30T09:40:21.003Z,18.81
2019-03-30T09:42:49.559Z,18.90
2019-03-30T09:45:18.033Z,18.98
2019-03-30T09:47:46.598Z,18.62
2019-03-30T09:50:15.460Z,16.61
2019-03-30T09:52:43.947Z,15.52
2019-03-30T09:55:12.711Z,15.35
2019-03-30T09:57:41.229Z,16.41
2019-03-30T10:00:09.949Z,16.23
2019-03-30T10:02:38.475Z,17.63
2019-03-30T10:05:07.431Z,16.63
2019-03-30T10:07:36.283Z,18.40
2019-03-30T10:10:06.310Z,18.49
2019-03-30T10:12:34.824Z,16.86
2019-03-30T10:15:04.179Z,16.65
2019-03-30T10:17:32.692Z,17.75
2019-03-30T10:20:04.837Z,18.80
2019-03-30T10:22:31.476Z,17.25
2019-03-30T10:24:59.975Z,17.93
2019-03-30T10:27:28.455Z,15.74
2019-03-30T10:29:56.972Z,17.57
2019-03-30T10:32:25.497Z,19.12
2019-03-30T10:34:53.989Z,18.01
2019-03-30T10:37:22.475Z,18.87
2019-03-30T10:39:51.062Z,19.64
2019-03-30T10:42:19.620Z,19.61
2019-03-30T10:44:48.229Z,20.01
2019-03-30T10:47:16.714Z,20.10
2019-03-30T10:49:45.208Z,20.32
2019-03-30T10:52:13.686Z,20.97
2019-03-30T10:54:52.681Z,21.02
2019-03-30T10:57:12.448Z,20.55
2019-03-30T10:59:40.965Z,19.64
2019-03-30T11:02:09.536Z,19.64
2019-03-30T11:04:38.081Z,19.19
2019-03-30T11:07:06.623Z,19.59
2019-03-30T11:09:35.103Z,20.38
2019-03-30T11:12:04.374Z,20.55
2019-03-30T11:14:32.901Z,21.31
2019-03-30T11:17:01.471Z,19.88
2019-03-30T11:19:29.964Z,20.11
2019-03-30T11:21:58.472Z,21.01
2019-03-30T11:24:27.163Z,21.01
2019-03-30T11:26:55.642Z,21.76
2019-03-30T11:29:24.171Z,19.89
2019-03-30T11:31:52.678Z,19.89
2019-03-30T11:34:21.284Z,17.09
2019-03-30T11:36:49.802Z,18.73
2019-03-30T11:39:18.304Z,19.34
2019-03-30T11:41:46.829Z,20.41
2019-03-30T11:44:15.324Z,20.56
2019-03-30T11:46:43.810Z,20.84
2019-03-30T11:49:12.318Z,20.53
2019-03-30T11:51:40.803Z,20.53
2019-03-30T11:54:09.390Z,20.54
2019-03-30T11:56:37.910Z,20.99
2019-03-30T11:59:06.398Z,21.85
2019-03-30T12:01:34.895Z,22.47
2019-03-30T12:04:03.378Z,21.84
2019-03-30T12:06:31.901Z,22.11
2019-03-30T12:09:00.413Z,21.75
2019-03-30T12:11:29.283Z,22.45
2019-03-30T12:13:57.802Z,21.11
2019-03-30T12:16:26.288Z,21.34
2019-03-30T12:18:54.785Z,20.11
2019-03-30T12:21:23.301Z,20.11
2019-03-30T12:23:51.781Z,18.90
2019-03-30T12:26:20.305Z,20.32
2019-03-30T12:28:48.798Z,20.32
2019-03-30T12:31:17.287Z,19.62
2019-03-30T12:33:45.911Z,19.51
2019-03-30T12:36:14.409Z,19.52
2019-03-30T12:38:42.939Z,19.20
2019-03-30T12:41:11.459Z,20.67
2019-03-30T12:43:39.939Z,21.33
2019-03-30T12:46:08.596Z,21.24
2019-03-30T12:48:37.142Z,21.41
2019-03-30T12:51:05.648Z,21.50
2019-03-30T12:53:34.145Z,21.44
2019-03-30T12:56:02.635Z,21.67
2019-03-30T12:58:31.205Z,21.20
2019-03-30T13:00:59.728Z,20.80
2019-03-30T13:03:28.222Z,20.37
2019-03-30T13:05:56.728Z,22.11
2019-03-30T13:08:25.244Z,21.60
2019-03-30T13:10:53.734Z,21.87
2019-03-30T13:13:22.255Z,22.54
2019-03-30T13:15:50.740Z,22.54
2019-03-30T13:18:19.227Z,22.51
2019-03-30T13:20:47.742Z,22.02
2019-03-30T13:23:16.259Z,20.85
2019-03-30T13:25:44.763Z,19.57
2019-03-30T13:28:13.331Z,21.12
2019-03-30T13:30:41.900Z,21.89
2019-03-30T13:33:10.452Z,21.89
2019-03-30T13:35:38.970Z,21.77
2019-03-30T13:38:07.489Z,21.31
2019-03-30T13:40:36.149Z,21.77
2019-03-30T13:43:04.738Z,21.77
2019-03-30T13:45:33.323Z,21.39
2019-03-30T13:48:01.808Z,21.32
2019-03-30T13:50:31.120Z,21.27
2019-03-30T13:52:59.785Z,21.09
2019-03-30T13:55:28.298Z,21.09
2019-03-30T13:57:56.811Z,21.15
2019-03-30T14:00:25.539Z,21.29
2019-03-30T14:02:54.057Z,21.48
2019-03-30T14:05:22.622Z,21.42
2019-03-30T14:07:51.153Z,20.30
2019-03-30T14:10:19.771Z,19.39
2019-03-30T14:12:48.270Z,20.47
2019-03-30T14:15:16.871Z,20.72
2019-03-30T14:17:45.360Z,20.75
2019-03-30T14:20:13.990Z,20.91
2019-03-30T14:22:42.513Z,21.08
2019-03-30T14:25:11.063Z,21.40
2019-03-30T14:27:39.585Z,21.40
2019-03-30T14:30:11.082Z,20.91
2019-03-30T14:32:39.612Z,21.22
2019-03-30T14:35:08.545Z,21.10
2019-03-30T14:37:37.027Z,20.60
2019-03-30T14:40:07.985Z,20.52
2019-03-30T14:42:36.472Z,20.45
2019-03-30T14:45:07.000Z,20.28
2019-03-30T14:47:35.514Z,20.43
2019-03-30T14:50:05.984Z,20.59
2019-03-30T14:52:34.505Z,20.67
2019-03-30T14:55:02.995Z,20.35
2019-03-30T14:57:31.582Z,20.30
2019-03-30T15:00:00.098Z,20.57
2019-03-30T15:02:28.854Z,20.79
2019-03-30T15:05:00.659Z,20.41
2019-03-30T15:07:27.597Z,20.24
2019-03-30T15:09:56.077Z,20.09
2019-03-30T15:12:24.668Z,20.13
2019-03-30T15:14:53.149Z,20.45
2019-03-30T15:17:21.725Z,20.28
2019-03-30T15:19:50.241Z,20.30
2019-03-30T15:22:18.742Z,20.27
2019-03-30T15:24:47.322Z,19.89
2019-03-30T15:27:15.825Z,20.18
2019-03-30T15:29:45.655Z,20.09
2019-03-30T15:32:14.300Z,20.17
2019-03-30T15:34:42.881Z,19.93
2019-03-30T15:37:11.380Z,20.12
2019-03-30T15:39:39.875Z,20.03
2019-03-30T15:42:08.370Z,20.24
2019-03-30T15:44:36.855Z,19.96
2019-03-30T15:47:05.478Z,20.09
2019-03-30T15:49:33.970Z,20.15
2019-03-30T15:52:13.274Z,19.92
2019-03-30T15:54:33.070Z,20.13
2019-03-30T15:57:13.459Z,19.95
2019-03-30T15:59:31.876Z,19.46
2019-03-30T16:02:00.438Z,19.62
2019-03-30T16:04:28.960Z,19.82
2019-03-30T16:06:58.613Z,19.80
2019-03-30T16:09:27.112Z,19.80
2019-03-30T16:11:55.662Z,19.85
2019-03-30T16:14:24.114Z,19.93
2019-03-30T16:16:52.683Z,19.89
2019-03-30T16:19:21.184Z,19.79
2019-03-30T16:21:49.888Z,19.77
2019-03-30T16:24:18.620Z,19.25
2019-03-30T16:26:47.144Z,19.42
2019-03-30T16:29:15.629Z,19.33
2019-03-30T16:31:44.131Z,19.07
2019-03-30T16:34:12.797Z,19.15
2019-03-30T16:36:41.294Z,19.31
2019-03-30T16:39:09.889Z,19.51
2019-03-30T16:41:38.386Z,19.36
2019-03-30T16:44:06.890Z,19.24
2019-03-30T16:46:35.411Z,19.06
2019-03-30T16:49:04.814Z,19.02
2019-03-30T16:51:33.296Z,19.04
2019-03-30T16:54:01.797Z,19.04
2019-03-30T16:56:30.324Z,18.88
2019-03-30T16:58:58.889Z,18.81
2019-03-30T17:01:27.416Z,18.65
2019-03-30T17:03:55.905Z,18.54
2019-03-30T17:06:24.429Z,18.47
2019-03-30T17:08:52.921Z,18.29
2019-03-30T17:11:21.424Z,18.21
2019-03-30T17:13:49.932Z,18.10
2019-03-30T17:16:18.461Z,17.95
2019-03-30T17:18:47.005Z,17.86
2019-03-30T17:21:15.499Z,17.80
2019-03-30T17:23:44.094Z,17.60
2019-03-30T17:26:12.585Z,17.42
2019-03-30T17:28:41.096Z,17.29
2019-03-30T17:31:09.814Z,17.13
2019-03-30T17:33:38.377Z,17.09
2019-03-30T17:36:06.867Z,17.00
2019-03-30T17:38:35.386Z,16.91
2019-03-30T17:41:05.419Z,16.82
2019-03-30T17:43:34.082Z,16.60
2019-03-30T17:46:02.667Z,16.49
2019-03-30T17:48:31.261Z,16.29
2019-03-30T17:50:59.751Z,16.14
2019-03-30T17:53:28.237Z,15.99
2019-03-30T17:55:56.743Z,15.98
2019-03-30T17:58:25.235Z,15.97
2019-03-30T18:00:53.755Z,15.88
2019-03-30T18:03:23.222Z,15.75
2019-03-30T18:05:51.728Z,15.64
2019-03-30T18:08:20.800Z,15.54
2019-03-30T18:10:49.314Z,15.46
2019-03-30T18:13:17.845Z,15.32
2019-03-30T18:15:46.372Z,15.14
2019-03-30T18:18:14.862Z,15.14
2019-03-30T18:20:43.387Z,14.97
2019-03-30T18:23:11.879Z,14.83
2019-03-30T18:25:40.410Z,14.78
2019-03-30T18:28:08.912Z,14.60
2019-03-30T18:30:39.640Z,14.38
2019-03-30T18:33:08.904Z,14.30
2019-03-30T18:35:39.499Z,14.15
2019-03-30T18:38:08.266Z,14.07
2019-03-30T18:40:36.828Z,13.99
2019-03-30T18:43:05.356Z,13.96
2019-03-30T18:45:33.913Z,13.98
2019-03-30T18:48:12.699Z,13.93
2019-03-30T18:50:43.249Z,13.73
2019-03-30T18:53:12.208Z,13.61
2019-03-30T18:55:40.700Z,13.49
2019-03-30T18:58:09.229Z,13.39
2019-03-30T19:00:37.812Z,13.24
2019-03-30T19:03:06.576Z,13.11
2019-03-30T19:05:35.445Z,13.18
2019-03-30T19:08:04.593Z,13.14
2019-03-30T19:10:33.175Z,13.12
2019-03-30T19:13:01.815Z,13.00
2019-03-30T19:15:30.322Z,12.73
2019-03-30T19:17:58.837Z,12.86
2019-03-30T19:20:27.363Z,13.01
2019-03-30T19:22:55.896Z,13.11
2019-03-30T19:25:24.392Z,13.09
2019-03-30T19:27:52.936Z,13.10
2019-03-30T19:30:21.559Z,13.02
2019-03-30T19:32:50.083Z,12.95
2019-03-30T19:35:18.654Z,12.91
2019-03-30T19:37:47.155Z,12.96
2019-03-30T19:40:15.715Z,12.88
2019-03-30T19:42:44.220Z,12.95
2019-03-30T19:45:13.019Z,12.83
2019-03-30T19:47:41.502Z,13.07
2019-03-30T19:50:10.723Z,12.98
2019-03-30T19:52:40.483Z,12.83
2019-03-30T19:55:09.359Z,12.93
2019-03-30T19:57:37.948Z,13.17
2019-03-30T20:00:14.436Z,13.25
2019-03-30T20:02:42.989Z,13.49
2019-03-30T20:05:11.914Z,13.71
2019-03-30T20:07:40.412Z,13.87
2019-03-30T20:10:09.468Z,13.86
2019-03-30T20:12:38.830Z,13.91
2019-03-30T20:15:08.686Z,13.83
2019-03-30T20:17:37.212Z,13.81
2019-03-30T20:20:07.162Z,13.74
2019-03-30T20:22:35.679Z,13.70
2019-03-30T20:25:06.610Z,13.72
2019-03-30T20:27:35.108Z,13.77
2019-03-30T20:30:05.688Z,13.80
2019-03-30T20:32:34.174Z,13.71
2019-03-30T20:35:02.773Z,13.59
2019-03-30T20:37:31.268Z,13.67
2019-03-30T20:39:59.786Z,13.66
2019-03-30T20:42:28.282Z,13.52
2019-03-30T20:44:56.808Z,13.48
2019-03-30T20:47:25.336Z,13.49
2019-03-30T20:49:53.826Z,13.48
2019-03-30T20:52:22.334Z,13.43
2019-03-30T20:54:50.827Z,13.35
2019-03-30T20:57:19.324Z,13.23
2019-03-30T20:59:47.847Z,13.31
2019-03-30T21:02:16.408Z,13.23
2019-03-30T21:04:44.929Z,12.96
2019-03-30T21:07:15.062Z,12.93
2019-03-30T21:09:43.567Z,13.05
2019-03-30T21:12:12.064Z,13.08
2019-03-30T21:14:40.573Z,13.12
2019-03-30T21:17:09.074Z,13.09
2019-03-30T21:19:37.594Z,13.08
2019-03-30T21:22:06.091Z,12.97
2019-03-30T21:24:34.614Z,12.96
2019-03-30T21:27:03.098Z,12.91
2019-03-30T21:29:31.597Z,12.86
2019-03-30T21:32:00.092Z,12.77
2019-03-30T21:34:28.615Z,12.84
2019-03-30T21:36:57.216Z,12.72
2019-03-30T21:39:25.700Z,12.58
2019-03-30T21:41:54.220Z,12.50
2019-03-30T21:44:22.851Z,12.49
2019-03-30T21:46:51.382Z,12.32
2019-03-30T21:49:19.863Z,12.25
2019-03-30T21:51:48.384Z,12.35
2019-03-30T21:54:16.876Z,12.36
2019-03-30T21:56:45.400Z,12.29
2019-03-30T21:59:13.918Z,12.38
2019-03-30T22:01:43.439Z,12.44
2019-03-30T22:04:11.988Z,12.47
2019-03-30T22:06:40.719Z,12.47
2019-03-30T22:09:09.448Z,12.42
2019-03-30T22:11:38.019Z,12.48
2019-03-30T22:14:08.601Z,12.42
2019-03-30T22:16:37.117Z,12.42
2019-03-30T22:19:05.686Z,12.29
2019-03-30T22:21:34.246Z,12.36
2019-03-30T22:24:02.729Z,12.45
2019-03-30T22:26:31.248Z,12.48
2019-03-30T22:28:59.739Z,12.38
2019-03-30T22:31:28.264Z,12.41
2019-03-30T22:33:56.752Z,12.38
2019-03-30T22:36:25.272Z,12.30
2019-03-30T22:38:53.773Z,12.29
2019-03-30T22:41:22.316Z,12.25
2019-03-30T22:43:50.788Z,12.16
2019-03-30T22:46:19.369Z,12.14
2019-03-30T22:48:47.857Z,12.08
2019-03-30T22:51:16.381Z,12.03
2019-03-30T22:53:44.866Z,12.07
2019-03-30T22:56:13.389Z,11.98
2019-03-30T22:58:41.909Z,11.96
2019-03-30T23:01:12.105Z,11.94
2019-03-30T23:03:40.764Z,11.75
2019-03-30T23:06:09.467Z,11.78
2019-03-30T23:08:37.941Z,11.85
2019-03-30T23:11:06.445Z,11.80
2019-03-30T23:13:34.923Z,11.67
2019-03-30T23:16:03.422Z,11.71
2019-03-30T23:18:31.905Z,11.56
2019-03-30T23:21:00.389Z,11.08
2019-03-30T23:23:28.900Z,10.44
2019-03-30T23:25:57.386Z,10.16
2019-03-30T23:28:25.863Z,9.48
2019-03-30T23:30:54.907Z,9.64
2019-03-30T23:33:24.423Z,9.90
2019-03-30T23:35:52.996Z,9.66
2019-03-30T23:38:21.480Z,9.77
2019-03-30T23:40:49.957Z,10.25
2019-03-30T23:43:18.475Z,10.51
2019-03-30T23:45:46.967Z,10.52
2019-03-30T23:48:15.443Z,10.58
2019-03-30T23:50:44.219Z,10.58
2019-03-30T23:53:12.689Z,10.70
2019-03-30T23:55:41.182Z,10.70
2019-03-30T23:58:09.669Z,10.71
